Time;durP1;ratioP1;P1;durP2;ratioP2;P2;SDS_P1;SDS_P2;PMS_P1;PMS_P2;Temp;Humidity;BMP_temperature;BMP_pressure;BME280_temperature;BME280_humidity;BME280_pressure;Samples;Min_cycle;Max_cycle;Signal;HPM_P1;HPM_P2
2023/07/05 00:00:05;;;;;;;10.07;6.90;;;15.90;99.90;;;;;;4834299;29;20258;-70
2023/07/05 00:02:32;;;;;;;14.57;7.88;;;15.80;99.90;;;;;;4833042;29;20036;-70
2023/07/05 00:04:58;;;;;;;10.73;6.25;;;15.80;99.90;;;;;;4846692;29;20037;-70
2023/07/05 00:07:24;;;;;;;9.73;5.90;;;15.70;99.90;;;;;;4830351;29;20044;-70
2023/07/05 00:09:50;;;;;;;11.23;7.63;;;15.70;99.90;;;;;;4836657;29;20429;-70
2023/07/05 00:12:17;;;;;;;9.82;6.57;;;15.70;99.90;;;;;;4830630;29;20029;-70
2023/07/05 00:14:43;;;;;;;7.97;5.95;;;15.70;99.90;;;;;;4838105;29;20488;-71
2023/07/05 00:17:10;;;;;;;8.27;5.47;;;15.70;99.90;;;;;;4836640;29;20358;-71
2023/07/05 00:19:36;;;;;;;13.30;8.77;;;15.80;99.90;;;;;;4832408;29;20507;-71
2023/07/05 00:22:03;;;;;;;10.82;6.78;;;15.80;99.90;;;;;;4817790;29;20036;-71
2023/07/05 00:24:29;;;;;;;11.43;7.53;;;15.80;99.90;;;;;;4845735;29;20042;-70
2023/07/05 00:26:56;;;;;;;10.13;8.02;;;15.80;99.90;;;;;;4844641;29;20045;-70
2023/07/05 00:29:22;;;;;;;11.00;7.68;;;15.80;99.90;;;;;;4833583;29;20846;-70
2023/07/05 00:31:49;;;;;;;13.27;8.57;;;15.70;99.90;;;;;;4831076;29;20033;-69
2023/07/05 00:34:15;;;;;;;14.38;9.40;;;15.70;99.90;;;;;;4803960;29;20493;-69
2023/07/05 00:36:41;;;;;;;9.88;7.13;;;15.70;99.90;;;;;;4837339;29;20037;-69
2023/07/05 00:39:07;;;;;;;8.68;7.53;;;15.80;99.90;;;;;;4833439;29;20048;-70
2023/07/05 00:41:36;;;;;;;12.77;7.75;;;15.70;99.90;;;;;;4822182;29;20481;-70
2023/07/05 00:44:02;;;;;;;10.48;8.02;;;15.70;99.90;;;;;;4843568;29;21028;-70
2023/07/05 00:46:31;;;;;;;13.65;10.60;;;15.70;99.90;;;;;;4838343;29;20034;-70
2023/07/05 00:49:03;;;;;;;11.43;8.63;;;15.80;99.90;;;;;;4831749;29;20041;-70
2023/07/05 00:51:40;;;;;;;7.03;6.30;;;15.80;99.90;;;;;;4812034;29;20048;-71
2023/07/05 00:54:07;;;;;;;10.30;7.07;;;15.80;99.90;;;;;;4819169;29;20067;-71
2023/07/05 00:56:41;;;;;;;10.07;7.65;;;15.80;99.90;;;;;;4819184;29;20045;-70
2023/07/05 00:59:10;;;;;;;11.68;6.97;;;15.80;99.90;;;;;;4835881;29;20024;-71
2023/07/05 01:01:37;;;;;;;8.88;6.45;;;15.80;99.90;;;;;;4836532;29;20116;-71
2023/07/05 01:04:06;;;;;;;6.65;5.95;;;15.80;99.90;;;;;;4842472;29;20519;-70
2023/07/05 01:06:33;;;;;;;10.13;5.70;;;15.80;99.90;;;;;;4834543;29;21170;-70
2023/07/05 01:08:59;;;;;;;6.75;5.57;;;15.80;99.90;;;;;;4832693;29;20048;-70
2023/07/05 01:11:59;;;;;;;11.65;6.25;;;15.80;99.90;;;;;;4829210;29;20394;-71
2023/07/05 01:15:06;;;;;;;8.18;5.60;;;15.90;99.90;;;;;;4835658;29;20465;-70
2023/07/05 01:18:03;;;;;;;9.43;4.40;;;15.90;99.90;;;;;;4811806;29;20053;-70
2023/07/05 01:20:39;;;;;;;6.55;5.00;;;15.90;99.90;;;;;;4843538;29;20049;-71
2023/07/05 01:23:33;;;;;;;7.93;5.03;;;15.90;99.90;;;;;;4835450;29;20403;-71
2023/07/05 01:26:15;;;;;;;6.45;4.55;;;15.90;99.90;;;;;;4850760;29;20041;-71
2023/07/05 01:29:13;;;;;;;7.43;4.97;;;15.90;99.90;;;;;;4802927;29;20041;-70
2023/07/05 01:32:17;;;;;;;5.80;4.40;;;15.90;99.90;;;;;;4831343;29;20037;-71
2023/07/05 01:34:51;;;;;;;5.25;4.35;;;15.90;99.90;;;;;;4837004;29;20441;-71
2023/07/05 01:37:33;;;;;;;6.18;4.53;;;15.90;99.90;;;;;;4844967;29;20106;-71
2023/07/05 01:40:00;;;;;;;11.43;6.72;;;15.90;99.90;;;;;;4845175;29;20071;-70
2023/07/05 01:42:31;;;;;;;6.65;5.78;;;15.90;99.90;;;;;;4835079;29;20040;-70
2023/07/05 01:44:57;;;;;;;7.63;5.72;;;15.90;99.90;;;;;;4821444;29;20044;-71
2023/07/05 01:47:41;;;;;;;5.80;4.90;;;15.90;99.90;;;;;;4822796;29;20044;-70
2023/07/05 01:50:42;;;;;;;7.22;6.03;;;15.90;99.90;;;;;;4834737;29;20025;-71
2023/07/05 01:53:12;;;;;;;8.70;5.70;;;15.90;99.90;;;;;;4835604;29;20037;-71
2023/07/05 01:55:48;;;;;;;7.85;5.47;;;15.90;99.90;;;;;;4847901;29;20036;-70
2023/07/05 01:58:22;;;;;;;9.93;7.00;;;16.00;99.90;;;;;;4846094;29;20052;-70
2023/07/05 02:00:50;;;;;;;11.27;7.80;;;16.00;99.90;;;;;;4834903;29;20043;-71
2023/07/05 02:03:21;;;;;;;9.38;7.40;;;16.00;99.90;;;;;;4817298;29;20255;-71
2023/07/05 02:05:48;;;;;;;11.25;6.82;;;16.00;99.90;;;;;;4838512;29;20048;-70
2023/07/05 02:08:15;;;;;;;13.75;7.35;;;15.90;99.90;;;;;;4809053;29;20029;-70
2023/07/05 02:10:41;;;;;;;8.77;6.82;;;16.00;99.90;;;;;;4839943;29;20713;-71
2023/07/05 02:13:08;;;;;;;8.52;5.80;;;16.00;99.90;;;;;;4844827;29;20037;-69
2023/07/05 02:15:37;;;;;;;7.80;5.03;;;16.00;99.90;;;;;;4847442;29;20056;-70
2023/07/05 02:18:05;;;;;;;9.15;5.35;;;16.00;99.90;;;;;;4839549;29;20029;-69
2023/07/05 02:20:35;;;;;;;6.82;5.05;;;16.10;99.90;;;;;;4804291;29;20040;-70
2023/07/05 02:23:02;;;;;;;6.53;4.63;;;16.00;99.90;;;;;;4817081;29;20067;-72
2023/07/05 02:25:30;;;;;;;8.05;5.07;;;16.10;99.90;;;;;;4838334;29;20045;-70
2023/07/05 02:27:57;;;;;;;9.93;4.90;;;16.10;99.90;;;;;;4823499;29;20369;-70
2023/07/05 02:30:26;;;;;;;5.15;4.65;;;16.20;99.90;;;;;;4841274;29;20397;-70
2023/07/05 02:32:52;;;;;;;7.47;4.43;;;16.10;99.90;;;;;;4843789;29;20029;-70
2023/07/05 02:35:19;;;;;;;6.82;4.05;;;16.10;99.90;;;;;;4845499;29;20037;-69
2023/07/05 02:37:45;;;;;;;6.78;4.10;;;16.10;99.90;;;;;;4823850;29;20567;-71
2023/07/05 02:40:12;;;;;;;6.20;4.47;;;16.10;99.90;;;;;;4819911;29;20048;-70
2023/07/05 02:42:38;;;;;;;4.88;3.78;;;16.10;99.90;;;;;;4832733;29;20393;-69
2023/07/05 02:45:05;;;;;;;4.13;2.92;;;16.10;99.90;;;;;;4838715;29;21181;-70
2023/07/05 02:47:31;;;;;;;5.25;3.50;;;16.10;99.90;;;;;;4836472;29;20449;-69
2023/07/05 02:49:58;;;;;;;4.25;3.42;;;16.00;99.90;;;;;;4828267;29;20491;-69
2023/07/05 02:52:24;;;;;;;4.82;3.00;;;16.00;99.90;;;;;;4826694;29;20286;-70
2023/07/05 02:54:50;;;;;;;4.15;2.75;;;16.00;99.90;;;;;;4825506;29;20071;-69
2023/07/05 02:57:17;;;;;;;4.07;3.22;;;16.00;99.90;;;;;;4838453;29;20053;-71
2023/07/05 02:59:43;;;;;;;3.13;2.70;;;16.00;99.90;;;;;;4835260;29;20036;-70
2023/07/05 03:02:10;;;;;;;6.38;3.00;;;15.90;99.90;;;;;;4832417;29;20385;-69
2023/07/05 03:04:38;;;;;;;9.50;2.50;;;15.90;99.90;;;;;;4837425;29;20041;-70
2023/07/05 03:07:04;;;;;;;7.57;2.63;;;15.90;99.90;;;;;;4837734;29;20040;-70
2023/07/05 03:09:30;;;;;;;4.30;2.55;;;15.90;99.90;;;;;;4843806;29;20520;-69
2023/07/05 03:11:57;;;;;;;4.45;2.97;;;15.80;99.90;;;;;;4842768;29;20040;-71
2023/07/05 03:14:23;;;;;;;3.63;3.03;;;15.80;99.90;;;;;;4837984;29;20436;-70
2023/07/05 03:16:50;;;;;;;4.75;3.15;;;15.80;99.90;;;;;;4836488;29;23081;-69
2023/07/05 03:19:16;;;;;;;5.15;4.15;;;15.70;99.90;;;;;;4835546;29;20480;-71
2023/07/05 03:21:43;;;;;;;6.05;4.03;;;15.60;99.90;;;;;;4831954;29;20040;-70
2023/07/05 03:24:10;;;;;;;4.05;3.50;;;15.50;99.90;;;;;;4836194;29;20401;-69
2023/07/05 03:26:36;;;;;;;5.07;4.50;;;15.40;99.90;;;;;;4846418;29;20045;-70
2023/07/05 03:29:03;;;;;;;4.13;3.72;;;15.20;99.90;;;;;;4828670;29;20072;-70
2023/07/05 03:31:30;;;;;;;4.57;4.10;;;15.10;99.90;;;;;;4834129;29;20037;-69
2023/07/05 03:33:56;;;;;;;5.38;4.43;;;15.00;99.90;;;;;;4834909;29;20033;-70
2023/07/05 03:36:23;;;;;;;5.03;3.50;;;14.90;99.90;;;;;;4834583;29;21035;-69
2023/07/05 03:38:53;;;;;;;3.78;3.35;;;14.80;99.90;;;;;;4818669;29;20393;-71
2023/07/05 03:41:24;;;;;;;3.33;3.03;;;14.80;99.90;;;;;;4831990;29;20056;-70
2023/07/05 03:43:57;;;;;;;5.13;3.72;;;14.70;99.90;;;;;;4824661;29;20044;-69
2023/07/05 03:46:23;;;;;;;;;;;14.70;99.90;;;;;;4832712;29;20021;-69
2023/07/05 03:48:50;;;;;;;5.40;3.20;;;14.70;99.90;;;;;;4841448;29;19919;-69
2023/07/05 03:51:19;;;;;;;6.15;3.50;;;14.60;99.90;;;;;;4832249;29;20052;-70
2023/07/05 03:53:53;;;;;;;4.80;3.72;;;14.60;99.90;;;;;;4834088;29;20472;-70
2023/07/05 03:56:20;;;;;;;5.35;3.00;;;14.60;99.90;;;;;;4835507;29;20048;-69
2023/07/05 03:58:47;;;;;;;5.90;3.83;;;14.50;99.90;;;;;;4817718;29;20453;-70
2023/07/05 04:01:17;;;;;;;4.60;3.05;;;14.40;99.90;;;;;;4834849;29;20049;-70
2023/07/05 04:03:46;;;;;;;3.78;2.42;;;14.40;99.90;;;;;;4847137;29;20373;-69
2023/07/05 04:06:13;;;;;;;5.75;2.83;;;14.40;99.90;;;;;;4844276;29;20525;-69
2023/07/05 04:08:42;;;;;;;4.60;2.72;;;14.30;99.90;;;;;;4834186;29;23148;-71
2023/07/05 04:11:09;;;;;;;4.30;2.58;;;14.40;99.90;;;;;;4833847;29;20037;-70
2023/07/05 04:13:36;;;;;;;5.40;2.70;;;14.40;99.90;;;;;;4831633;29;20037;-70
2023/07/05 04:16:10;;;;;;;6.15;2.80;;;14.30;99.90;;;;;;4833689;29;20385;-69
2023/07/05 04:18:37;;;;;;;6.00;2.78;;;14.30;99.90;;;;;;4820146;29;20049;-69
2023/07/05 04:21:05;;;;;;;4.35;3.00;;;14.30;99.90;;;;;;4841127;29;21317;-70
2023/07/05 04:23:31;;;;;;;5.25;2.88;;;14.30;99.90;;;;;;4844830;29;20099;-69
2023/07/05 04:26:02;;;;;;;6.47;2.78;;;14.30;99.90;;;;;;4837784;29;21193;-69
2023/07/05 04:28:30;;;;;;;6.13;3.08;;;14.20;99.90;;;;;;4835892;29;21120;-70
2023/07/05 04:30:57;;;;;;;4.72;2.65;;;14.20;99.90;;;;;;4836083;29;20033;-70
2023/07/05 04:33:24;;;;;;;3.60;2.70;;;14.20;99.90;;;;;;4832435;29;20420;-70
2023/07/05 04:35:54;;;;;;;4.57;2.83;;;14.20;99.90;;;;;;4834367;29;20048;-71
2023/07/05 04:38:20;;;;;;;5.90;3.30;;;14.20;99.90;;;;;;4838986;29;20052;-71
2023/07/05 04:40:47;;;;;;;6.70;3.38;;;14.30;99.90;;;;;;4825949;29;20041;-70
2023/07/05 04:43:13;;;;;;;5.70;3.38;;;14.30;99.90;;;;;;4825720;29;20045;-70
2023/07/05 04:45:40;;;;;;;5.78;3.00;;;14.30;99.90;;;;;;4835785;29;20045;-70
2023/07/05 04:48:06;;;;;;;6.13;3.33;;;14.30;99.90;;;;;;4835878;29;20028;-71
2023/07/05 04:50:33;;;;;;;7.00;3.53;;;14.30;99.90;;;;;;4832179;29;20036;-69
2023/07/05 04:52:59;;;;;;;4.82;3.63;;;14.30;99.90;;;;;;4815157;29;20048;-70
2023/07/05 04:55:25;;;;;;;4.45;3.70;;;14.30;99.90;;;;;;4836168;29;20032;-71
2023/07/05 04:57:51;;;;;;;4.07;3.03;;;14.30;99.90;;;;;;4842078;29;20513;-70
2023/07/05 05:00:18;;;;;;;6.35;3.20;;;14.30;99.90;;;;;;4809697;29;20056;-71
2023/07/05 05:02:44;;;;;;;4.90;2.97;;;14.50;99.90;;;;;;4835876;29;20040;-71
2023/07/05 05:05:11;;;;;;;8.40;3.75;;;14.50;99.90;;;;;;4832932;29;20394;-70
2023/07/05 05:07:37;;;;;;;5.72;3.58;;;14.50;99.90;;;;;;4833980;29;20029;-70
2023/07/05 05:10:04;;;;;;;3.95;3.05;;;14.50;99.90;;;;;;4832082;29;20037;-70
2023/07/05 05:12:31;;;;;;;5.60;3.35;;;14.50;99.90;;;;;;4833358;29;20041;-71
2023/07/05 05:14:57;;;;;;;20.52;3.85;;;14.60;99.90;;;;;;4841278;29;20053;-70
2023/07/05 05:17:23;;;;;;;7.65;4.50;;;14.60;99.90;;;;;;4853101;29;20485;-69
2023/07/05 05:19:49;;;;;;;5.85;3.50;;;14.70;99.90;;;;;;4848075;29;20457;-70
2023/07/05 05:22:16;;;;;;;7.55;5.78;;;14.80;99.90;;;;;;4836458;29;20044;-70
2023/07/05 05:24:42;;;;;;;9.15;4.72;;;14.80;99.90;;;;;;4835442;29;20041;-69
2023/07/05 05:27:08;;;;;;;8.05;4.40;;;15.00;99.90;;;;;;4839952;29;20036;-70
2023/07/05 05:29:35;;;;;;;5.32;3.80;;;15.20;99.90;;;;;;4838748;29;20045;-70
2023/07/05 05:32:02;;;;;;;6.95;3.90;;;15.30;99.90;;;;;;4835314;29;20048;-72
2023/07/05 05:34:28;;;;;;;4.95;2.78;;;15.40;99.90;;;;;;4829706;29;20037;-72
2023/07/05 05:36:55;;;;;;;5.90;4.57;;;15.50;99.90;;;;;;4851339;29;20317;-72
2023/07/05 05:39:24;;;;;;;5.35;3.58;;;15.50;99.90;;;;;;4846526;29;20044;-71
2023/07/05 05:41:50;;;;;;;4.88;3.17;;;15.50;99.90;;;;;;4805492;29;20377;-71
2023/07/05 05:44:16;;;;;;;4.45;2.80;;;15.60;99.90;;;;;;4823959;29;20044;-71
2023/07/05 05:46:43;;;;;;;5.32;2.67;;;15.50;99.90;;;;;;4840653;29;20029;-72
2023/07/05 05:49:09;;;;;;;6.07;2.95;;;15.50;99.90;;;;;;4835111;29;20843;-71
2023/07/05 05:51:35;;;;;;;5.97;3.22;;;15.40;99.90;;;;;;4820106;29;20589;-69
2023/07/05 05:54:02;;;;;;;5.75;3.10;;;15.40;99.90;;;;;;4846706;29;20045;-73
2023/07/05 05:56:28;;;;;;;7.25;2.80;;;15.40;99.90;;;;;;4848356;29;20045;-71
2023/07/05 05:58:54;;;;;;;5.65;2.85;;;15.50;99.90;;;;;;4843323;29;20457;-71
2023/07/05 06:01:20;;;;;;;7.25;2.92;;;15.60;99.90;;;;;;4819706;29;20516;-70
2023/07/05 06:03:47;;;;;;;6.22;4.05;;;15.70;99.90;;;;;;4839543;29;20072;-72
2023/07/05 06:06:13;;;;;;;7.35;4.00;;;15.80;99.90;;;;;;4826580;29;20400;-71
2023/07/05 06:08:40;;;;;;;4.82;3.17;;;15.80;99.90;;;;;;4836001;29;20045;-70
2023/07/05 06:11:06;;;;;;;4.45;2.15;;;15.70;99.90;;;;;;4828071;29;20049;-71
2023/07/05 06:13:33;;;;;;;5.78;2.50;;;15.60;99.90;;;;;;4828503;29;20037;-71
2023/07/05 06:16:02;;;;;;;5.78;2.92;;;15.60;99.90;;;;;;4845644;29;20045;-71
2023/07/05 06:18:29;;;;;;;4.40;2.30;;;15.50;99.90;;;;;;4836796;29;20500;-71
2023/07/05 06:20:56;;;;;;;4.97;1.95;;;15.50;99.90;;;;;;4830746;29;20049;-71
2023/07/05 06:23:23;;;;;;;6.68;2.75;;;15.50;99.90;;;;;;4832312;29;20044;-72
2023/07/05 06:25:50;;;;;;;5.47;2.33;;;15.50;99.90;;;;;;4836259;29;20119;-71
2023/07/05 06:28:18;;;;;;;6.03;2.15;;;15.50;99.90;;;;;;4836422;29;20072;-72
2023/07/05 06:30:45;;;;;;;5.85;2.15;;;15.60;99.90;;;;;;4841558;29;20040;-72
2023/07/05 06:33:13;;;;;;;5.55;2.45;;;15.70;99.90;;;;;;4825688;29;20025;-72
2023/07/05 06:35:40;;;;;;;7.15;1.90;;;15.70;99.90;;;;;;4837895;29;20045;-72
2023/07/05 06:38:07;;;;;;;5.85;2.45;;;15.70;99.90;;;;;;4833119;29;20052;-71
2023/07/05 06:40:33;;;;;;;4.53;1.88;;;15.70;99.90;;;;;;4814028;29;20045;-71
2023/07/05 06:43:00;;;;;;;6.18;2.10;;;15.50;99.90;;;;;;4832120;29;20432;-71
2023/07/05 06:45:30;;;;;;;5.38;3.20;;;15.50;99.90;;;;;;4817672;29;20033;-71
2023/07/05 06:47:56;;;;;;;4.97;2.50;;;15.30;99.90;;;;;;4835464;29;20049;-70
2023/07/05 06:50:22;;;;;;;5.60;2.05;;;15.20;99.90;;;;;;4828840;29;20504;-69
2023/07/05 06:52:49;;;;;;;5.57;1.77;;;15.10;99.90;;;;;;4837177;29;20037;-69
2023/07/05 06:55:15;;;;;;;3.08;1.70;;;14.90;99.90;;;;;;4837379;29;20045;-68
2023/07/05 06:57:42;;;;;;;4.47;1.95;;;14.70;99.90;;;;;;4833665;29;20060;-68
2023/07/05 07:00:09;;;;;;;4.25;1.58;;;14.60;99.90;;;;;;4813776;29;20645;-69
2023/07/05 07:02:36;;;;;;;2.75;1.55;;;14.60;99.90;;;;;;4830851;29;20051;-69
2023/07/05 07:05:02;;;;;;;3.13;1.52;;;14.60;99.90;;;;;;4831383;29;20045;-69
2023/07/05 07:07:29;;;;;;;6.00;1.85;;;14.50;99.90;;;;;;4837333;29;20473;-69
2023/07/05 07:09:55;;;;;;;6.10;1.35;;;14.50;99.90;;;;;;4824521;29;20037;-69
2023/07/05 07:12:22;;;;;;;4.63;1.20;;;14.40;99.90;;;;;;4839069;29;20473;-69
2023/07/05 07:14:48;;;;;;;4.13;1.02;;;14.50;99.90;;;;;;4817396;29;20036;-69
2023/07/05 07:17:14;;;;;;;4.88;0.90;;;14.50;99.90;;;;;;4831918;29;21278;-69
2023/07/05 07:19:41;;;;;;;2.67;1.02;;;14.40;99.90;;;;;;4816608;29;20041;-69
2023/07/05 07:22:07;;;;;;;3.13;0.77;;;14.40;99.90;;;;;;4827509;29;20060;-69
2023/07/05 07:24:33;;;;;;;3.40;0.70;;;14.50;99.90;;;;;;4832088;29;20384;-69
2023/07/05 07:27:00;;;;;;;2.90;0.50;;;14.50;99.90;;;;;;4841727;29;20052;-69
2023/07/05 07:29:26;;;;;;;2.83;0.73;;;14.40;99.90;;;;;;4841282;29;20623;-69
2023/07/05 07:31:52;;;;;;;2.55;0.70;;;14.40;99.90;;;;;;4834770;29;20048;-69
2023/07/05 07:34:19;;;;;;;2.47;0.57;;;14.50;99.90;;;;;;4828747;29;20482;-69
2023/07/05 07:36:46;;;;;;;2.67;0.55;;;14.60;99.90;;;;;;4800106;29;20044;-69
2023/07/05 07:39:14;;;;;;;1.52;0.47;;;14.60;99.90;;;;;;4832619;29;20040;-69
2023/07/05 07:41:40;;;;;;;2.88;0.50;;;14.70;99.90;;;;;;4831492;29;20033;-69
2023/07/05 07:44:08;;;;;;;2.55;0.50;;;14.70;99.90;;;;;;4830499;29;20733;-69
2023/07/05 07:46:37;;;;;;;3.53;0.90;;;14.70;99.90;;;;;;4842128;29;20033;-69
2023/07/05 07:49:05;;;;;;;2.15;0.50;;;14.70;99.90;;;;;;4839423;29;20033;-69
2023/07/05 07:51:34;;;;;;;4.05;0.70;;;14.70;99.90;;;;;;4813461;29;20045;-69
2023/07/05 07:54:01;;;;;;;5.18;0.93;;;14.70;99.90;;;;;;4829482;29;20041;-69
2023/07/05 07:56:27;;;;;;;2.67;0.75;;;14.80;99.90;;;;;;4835037;29;20052;-69
2023/07/05 07:58:57;;;;;;;3.33;0.90;;;14.80;99.90;;;;;;4835890;29;20041;-69
2023/07/05 08:01:29;;;;;;;2.45;0.80;;;14.80;99.90;;;;;;4830212;29;20067;-70
2023/07/05 08:03:57;;;;;;;2.72;0.80;;;14.70;99.90;;;;;;4839886;29;20734;-70
2023/07/05 08:06:28;;;;;;;5.07;0.68;;;14.60;99.90;;;;;;4846019;29;20032;-70
2023/07/05 08:08:55;;;;;;;4.72;1.08;;;14.50;99.90;;;;;;4828171;29;20053;-70
2023/07/05 08:11:21;;;;;;;5.03;1.45;;;14.40;99.90;;;;;;4844750;29;20045;-70
2023/07/05 08:13:48;;;;;;;7.70;1.98;;;14.30;99.90;;;;;;4832886;29;20481;-70
2023/07/05 08:16:16;;;;;;;6.57;1.67;;;14.20;99.90;;;;;;4833043;29;20633;-69
2023/07/05 08:18:47;;;;;;;5.63;1.60;;;14.20;99.90;;;;;;4816580;29;20399;-70
2023/07/05 08:21:14;;;;;;;6.97;1.65;;;14.20;99.90;;;;;;4830496;29;22010;-70
2023/07/05 08:23:42;;;;;;;4.10;1.80;;;14.20;99.90;;;;;;4840758;29;20036;-70
2023/07/05 08:26:08;;;;;;;8.60;1.75;;;14.10;99.90;;;;;;4843113;29;21339;-70
2023/07/05 08:28:34;;;;;;;3.80;1.52;;;14.10;99.90;;;;;;4837197;29;20048;-70
2023/07/05 08:31:04;;;;;;;4.40;1.58;;;14.10;99.90;;;;;;4826516;29;20056;-70
2023/07/05 08:33:31;;;;;;;3.50;1.40;;;14.10;99.90;;;;;;4828594;29;20042;-70
2023/07/05 08:36:04;;;;;;;4.18;1.63;;;14.20;99.90;;;;;;4830018;29;21220;-70
2023/07/05 08:38:31;;;;;;;4.93;1.25;;;14.30;99.90;;;;;;4831486;29;20056;-70
2023/07/05 08:41:18;;;;;;;4.22;1.35;;;14.30;99.90;;;;;;4829509;29;20040;-70
2023/07/05 08:43:56;;;;;;;5.45;1.70;;;14.40;99.90;;;;;;4841126;29;20033;-70
2023/07/05 08:46:26;;;;;;;5.47;1.60;;;14.40;99.90;;;;;;4809488;29;20041;-70
2023/07/05 08:49:00;;;;;;;3.63;1.80;;;14.60;99.90;;;;;;4829538;29;20880;-70
2023/07/05 08:51:28;;;;;;;3.65;1.83;;;14.80;99.90;;;;;;4810129;29;20056;-70
2023/07/05 08:53:58;;;;;;;5.22;2.10;;;15.10;99.90;;;;;;4830938;29;20048;-70
2023/07/05 08:56:59;;;;;;;7.10;2.97;;;15.30;99.90;;;;;;4830260;29;20036;-70
2023/07/05 08:59:44;;;;;;;6.82;2.42;;;15.50;99.90;;;;;;4832554;29;20041;-70
2023/07/05 09:02:14;;;;;;;3.78;2.50;;;15.70;99.90;;;;;;4837300;29;21203;-70
2023/07/05 09:04:40;;;;;;;5.32;2.42;;;15.70;99.90;;;;;;4841921;29;20041;-70
2023/07/05 09:07:24;;;;;;;6.05;2.42;;;15.60;99.90;;;;;;4832143;29;20053;-70
2023/07/05 09:09:58;;;;;;;11.38;3.35;;;15.40;99.90;;;;;;4828812;29;20059;-71
2023/07/05 09:12:31;;;;;;;7.05;2.28;;;15.20;99.90;;;;;;4826065;29;20489;-72
2023/07/05 09:15:00;;;;;;;5.15;1.27;;;14.90;99.90;;;;;;4832390;29;20048;-72
2023/07/05 09:18:05;;;;;;;3.83;0.80;;;14.50;99.90;;;;;;4836990;29;20052;-72
2023/07/05 09:20:54;;;;;;;4.03;1.83;;;14.20;99.90;;;;;;4837622;29;20504;-70
2023/07/05 09:23:26;;;;;;;5.43;2.80;;;14.20;99.90;;;;;;4815479;29;20052;-71
2023/07/05 09:26:01;;;;;;;5.28;3.67;;;14.30;99.90;;;;;;4835478;29;20028;-71
2023/07/05 09:28:39;;;;;;;11.07;2.50;;;14.30;99.90;;;;;;4819322;29;20044;-72
2023/07/05 09:31:12;;;;;;;21.13;2.38;;;14.30;99.90;;;;;;4830072;29;20722;-72
2023/07/05 09:33:48;;;;;;;28.75;1.77;;;14.00;99.90;;;;;;4846644;29;20650;-72
2023/07/05 09:36:22;;;;;;;4.13;1.05;;;13.60;99.90;;;;;;4837605;29;21673;-71
2023/07/05 09:38:56;;;;;;;5.07;1.52;;;13.30;99.90;;;;;;4837642;29;20103;-71
2023/07/05 09:41:34;;;;;;;6.18;1.58;;;13.20;99.90;;;;;;4833124;29;20033;-72
2023/07/05 09:44:00;;;;;;;5.28;1.48;;;13.00;99.90;;;;;;4814761;29;20052;-72
2023/07/05 09:46:32;;;;;;;6.43;1.80;;;12.90;99.90;;;;;;4828131;29;20037;-72
2023/07/05 09:48:59;;;;;;;8.57;2.97;;;12.80;99.90;;;;;;4827555;29;20591;-72
2023/07/05 09:51:26;;;;;;;6.20;1.80;;;12.80;99.90;;;;;;4809205;29;20701;-73
2023/07/05 09:54:00;;;;;;;7.05;2.15;;;12.70;99.90;;;;;;4835983;29;21606;-73
2023/07/05 09:56:27;;;;;;;10.50;2.20;;;12.70;99.90;;;;;;4840383;29;21529;-73
2023/07/05 09:59:15;;;;;;;7.90;2.22;;;12.70;99.90;;;;;;4836943;29;20340;-72
2023/07/05 10:01:48;;;;;;;7.03;1.75;;;12.60;99.90;;;;;;4813903;29;20276;-73
2023/07/05 10:04:16;;;;;;;6.65;2.50;;;12.70;99.90;;;;;;4816893;29;20037;-72
2023/07/05 10:06:45;;;;;;;10.63;2.67;;;12.80;99.90;;;;;;4817627;29;20500;-73
2023/07/05 10:09:15;;;;;;;8.38;2.70;;;12.80;99.90;;;;;;4832139;29;20489;-72
2023/07/05 10:11:47;;;;;;;6.47;2.17;;;12.90;99.90;;;;;;4836886;29;20045;-73
2023/07/05 10:14:20;;;;;;;8.18;2.95;;;13.00;99.90;;;;;;4848642;29;20033;-73
2023/07/05 10:16:46;;;;;;;7.63;3.00;;;13.20;99.90;;;;;;4846833;29;20037;-72
2023/07/05 10:19:30;;;;;;;7.55;2.83;;;13.20;99.90;;;;;;4834687;29;20691;-73
2023/07/05 10:22:06;;;;;;;9.25;2.95;;;13.20;99.90;;;;;;4835158;29;20089;-73
2023/07/05 10:24:46;;;;;;;11.98;3.50;;;13.20;99.90;;;;;;4835892;29;20032;-72
2023/07/05 10:27:34;;;;;;;14.40;3.20;;;13.30;99.90;;;;;;4836300;29;20505;-73
2023/07/05 10:30:07;;;;;;;9.90;3.65;;;13.20;99.90;;;;;;4835893;29;20034;-73
2023/07/05 10:32:36;;;;;;;16.27;4.55;;;13.20;99.90;;;;;;4841885;29;20037;-73
2023/07/05 10:35:29;;;;;;;13.20;3.85;;;13.10;99.90;;;;;;4845121;29;20044;-72
2023/07/05 10:37:56;;;;;;;12.00;3.72;;;13.10;99.90;;;;;;4838593;29;20041;-72
2023/07/05 10:40:23;;;;;;;10.30;4.00;;;13.10;99.90;;;;;;4835840;29;20045;-72
2023/07/05 10:42:53;;;;;;;11.27;4.15;;;13.10;99.90;;;;;;4830900;29;20036;-72
2023/07/05 10:45:22;;;;;;;13.15;4.55;;;13.00;99.90;;;;;;4836197;29;20041;-72
2023/07/05 10:47:53;;;;;;;10.48;3.60;;;13.00;99.90;;;;;;4838183;29;20033;-72
2023/07/05 10:50:29;;;;;;;9.05;3.63;;;13.00;99.90;;;;;;4843341;29;20040;-72
2023/07/05 10:53:21;;;;;;;8.40;3.85;;;13.00;99.90;;;;;;4839662;29;20060;-72
2023/07/05 10:56:14;;;;;;;10.32;4.15;;;13.20;99.90;;;;;;4840265;29;20024;-72
2023/07/05 10:58:49;;;;;;;13.00;5.13;;;13.20;99.90;;;;;;4838426;29;20847;-72
2023/07/05 11:01:16;;;;;;;14.90;4.18;;;13.30;99.90;;;;;;4833454;29;21199;-73
2023/07/05 11:03:55;;;;;;;16.40;5.60;;;13.30;99.90;;;;;;4838303;29;20037;-72
2023/07/05 11:06:22;;;;;;;12.20;4.80;;;13.30;99.90;;;;;;4836742;29;20495;-72
2023/07/05 11:08:49;;;;;;;12.20;5.00;;;13.20;99.90;;;;;;4838858;29;20400;-72
2023/07/05 11:11:27;;;;;;;12.25;5.45;;;13.40;99.90;;;;;;4839500;29;20041;-73
2023/07/05 11:13:54;;;;;;;11.48;4.88;;;13.60;99.90;;;;;;4844288;29;20037;-72
2023/07/05 11:16:25;;;;;;;10.82;5.22;;;13.60;99.90;;;;;;4837755;29;20360;-71
2023/07/05 11:19:09;;;;;;;11.75;5.20;;;13.70;99.90;;;;;;4831538;29;20037;-72
2023/07/05 11:21:53;;;;;;;14.52;5.38;;;13.90;99.90;;;;;;4832958;29;20041;-72
2023/07/05 11:24:38;;;;;;;10.00;5.55;;;14.00;99.90;;;;;;4836120;29;20123;-72
2023/07/05 11:27:23;;;;;;;11.15;4.68;;;14.10;99.90;;;;;;4843482;29;20037;-71
2023/07/05 11:29:52;;;;;;;8.85;4.05;;;14.10;99.90;;;;;;4844576;29;20372;-71
2023/07/05 11:32:20;;;;;;;11.15;4.03;;;14.30;99.90;;;;;;4839928;29;20042;-72
2023/07/05 11:34:52;;;;;;;6.60;3.58;;;14.50;99.90;;;;;;4835778;29;20040;-71
2023/07/05 11:37:21;;;;;;;12.90;4.03;;;14.50;99.90;;;;;;4839086;29;20056;-70
2023/07/05 11:39:50;;;;;;;5.60;2.83;;;14.60;99.90;;;;;;4834735;29;20036;-71
2023/07/05 11:42:20;;;;;;;8.60;3.67;;;14.80;99.90;;;;;;4832731;29;20021;-71
2023/07/05 11:45:10;;;;;;;16.52;6.53;;;15.10;99.90;;;;;;4838475;29;20049;-71
2023/07/05 11:47:36;;;;;;;10.68;5.15;;;15.70;99.90;;;;;;4844312;29;20068;-71
2023/07/05 11:50:07;;;;;;;12.50;4.13;;;16.20;99.90;;;;;;4841614;29;20052;-72
2023/07/05 11:52:42;;;;;;;6.70;2.80;;;16.40;99.90;;;;;;4816450;29;20048;-71
2023/07/05 11:55:24;;;;;;;7.00;2.58;;;16.50;99.90;;;;;;4835229;29;20045;-71
2023/07/05 11:58:09;;;;;;;7.60;2.33;;;16.40;99.90;;;;;;4834985;29;20476;-72
2023/07/05 12:00:40;;;;;;;10.02;2.08;;;16.30;99.90;;;;;;4833797;29;20051;-71
2023/07/05 12:03:18;;;;;;;6.82;1.30;;;16.70;99.90;;;;;;4831755;29;20064;-71
2023/07/05 12:05:53;;;;;;;8.02;1.25;;;16.60;99.90;;;;;;4845145;29;20048;-71
2023/07/05 12:08:24;;;;;;;4.13;1.20;;;16.60;99.90;;;;;;4843402;29;20116;-71
2023/07/05 12:11:00;;;;;;;6.80;2.53;;;16.50;99.90;;;;;;4832341;29;20459;-71
2023/07/05 12:13:31;;;;;;;9.27;3.03;;;16.40;99.90;;;;;;4832200;29;20037;-71
2023/07/05 12:15:59;;;;;;;8.77;3.67;;;16.20;99.90;;;;;;4805069;29;20139;-71
2023/07/05 12:18:27;;;;;;;9.77;3.17;;;16.10;99.90;;;;;;4837728;29;21187;-71
2023/07/05 12:20:54;;;;;;;9.93;3.22;;;15.90;99.90;;;;;;4831131;29;20033;-71
2023/07/05 12:23:23;;;;;;;9.35;2.92;;;15.60;99.90;;;;;;4840626;29;20408;-71
2023/07/05 12:25:53;;;;;;;9.70;2.75;;;15.40;99.90;;;;;;4845806;29;20029;-71
2023/07/05 12:28:23;;;;;;;5.95;2.40;;;15.30;99.90;;;;;;4835913;29;20045;-70
2023/07/05 12:30:51;;;;;;;7.30;1.67;;;15.40;99.90;;;;;;4830610;29;20040;-71
2023/07/05 12:33:23;;;;;;;6.85;2.13;;;15.60;99.90;;;;;;4829999;29;20033;-71
2023/07/05 12:36:08;;;;;;;6.93;1.88;;;15.60;99.90;;;;;;4817624;29;20045;-71
2023/07/05 12:38:34;;;;;;;6.55;1.70;;;15.40;99.90;;;;;;4833316;29;20052;-71
2023/07/05 12:41:02;;;;;;;4.18;1.50;;;15.20;99.90;;;;;;4837946;29;20409;-71
2023/07/05 12:43:32;;;;;;;5.18;1.38;;;15.20;99.90;;;;;;4841777;29;20043;-70
2023/07/05 12:46:07;;;;;;;4.57;1.65;;;15.50;99.90;;;;;;4841830;29;20052;-70
2023/07/05 12:48:33;;;;;;;6.18;1.85;;;15.70;99.90;;;;;;4836685;29;20025;-70
2023/07/05 12:51:10;;;;;;;7.40;2.70;;;15.80;99.90;;;;;;4832564;29;20152;-69
2023/07/05 12:53:37;;;;;;;6.60;1.40;;;16.10;99.90;;;;;;4830767;29;20033;-70
2023/07/05 12:56:03;;;;;;;6.25;1.55;;;16.10;99.90;;;;;;4836464;29;20381;-70
2023/07/05 12:58:30;;;;;;;4.43;1.35;;;15.90;99.90;;;;;;4834729;29;20057;-70
2023/07/05 13:00:59;;;;;;;6.03;1.60;;;15.70;99.90;;;;;;4826979;29;20045;-69